sensor_id;sensor_type;location;lat;lon;timestamp;P1;durP1;ratioP1;P2;durP2;ratioP2
71902;SDS011;59778;50.310;18.780;2022-07-06T00:14:56;44.63;;;25.80;;
71902;SDS011;59778;50.310;18.780;2022-07-06T00:30:17;44.47;;;26.30;;
71902;SDS011;59778;50.310;18.780;2022-07-06T00:45:38;30.60;;;21.60;;
71902;SDS011;59778;50.310;18.780;2022-07-06T01:00:59;33.40;;;22.30;;
71902;SDS011;59778;50.310;18.780;2022-07-06T01:16:24;36.73;;;20.93;;
71902;SDS011;59778;50.310;18.780;2022-07-06T01:31:46;32.97;;;20.80;;
71902;SDS011;59778;50.310;18.780;2022-07-06T01:47:09;28.50;;;20.57;;
71902;SDS011;59778;50.310;18.780;2022-07-06T02:02:30;31.50;;;19.93;;
71902;SDS011;59778;50.310;18.780;2022-07-06T02:17:52;39.63;;;21.97;;
71902;SDS011;59778;50.310;18.780;2022-07-06T02:33:13;33.63;;;21.33;;
71902;SDS011;59778;50.310;18.780;2022-07-06T02:48:34;30.00;;;19.70;;
71902;SDS011;59778;50.310;18.780;2022-07-06T03:03:55;30.53;;;19.17;;
71902;SDS011;59778;50.310;18.780;2022-07-06T03:19:17;31.57;;;18.23;;
71902;SDS011;59778;50.310;18.780;2022-07-06T03:34:38;44.70;;;22.53;;
71902;SDS011;59778;50.310;18.780;2022-07-06T03:49:59;47.97;;;26.03;;
71902;SDS011;59778;50.310;18.780;2022-07-06T04:05:20;43.37;;;23.47;;
71902;SDS011;59778;50.310;18.780;2022-07-06T04:20:42;37.00;;;21.63;;
71902;SDS011;59778;50.310;18.780;2022-07-06T04:36:04;39.97;;;23.87;;
71902;SDS011;59778;50.310;18.780;2022-07-06T04:51:25;45.27;;;23.83;;
71902;SDS011;59778;50.310;18.780;2022-07-06T05:06:46;43.20;;;25.63;;
71902;SDS011;59778;50.310;18.780;2022-07-06T05:22:07;36.67;;;22.13;;
71902;SDS011;59778;50.310;18.780;2022-07-06T05:37:29;36.23;;;22.43;;
71902;SDS011;59778;50.310;18.780;2022-07-06T05:52:57;39.90;;;24.87;;
71902;SDS011;59778;50.310;18.780;2022-07-06T06:08:20;52.60;;;27.87;;
71902;SDS011;59778;50.310;18.780;2022-07-06T06:23:41;40.80;;;27.03;;
71902;SDS011;59778;50.310;18.780;2022-07-06T06:39:02;31.47;;;21.80;;
71902;SDS011;59778;50.310;18.780;2022-07-06T06:54:23;23.70;;;17.37;;
71902;SDS011;59778;50.310;18.780;2022-07-06T07:09:44;14.30;;;11.00;;
71902;SDS011;59778;50.310;18.780;2022-07-06T07:25:05;14.80;;;8.60;;
71902;SDS011;59778;50.310;18.780;2022-07-06T07:40:28;12.00;;;6.77;;
71902;SDS011;59778;50.310;18.780;2022-07-06T07:55:50;9.00;;;6.23;;
71902;SDS011;59778;50.310;18.780;2022-07-06T08:11:11;10.17;;;6.20;;
71902;SDS011;59778;50.310;18.780;2022-07-06T08:26:32;8.33;;;4.10;;
71902;SDS011;59778;50.310;18.780;2022-07-06T08:41:54;8.60;;;3.60;;
71902;SDS011;59778;50.310;18.780;2022-07-06T08:57:17;6.97;;;3.13;;
71902;SDS011;59778;50.310;18.780;2022-07-06T09:12:38;4.30;;;2.20;;
71902;SDS011;59778;50.310;18.780;2022-07-06T09:27:59;3.27;;;2.00;;
71902;SDS011;59778;50.310;18.780;2022-07-06T09:43:21;7.17;;;4.23;;
71902;SDS011;59778;50.310;18.780;2022-07-06T09:58:43;5.97;;;1.87;;
71902;SDS011;59778;50.310;18.780;2022-07-06T10:14:05;3.07;;;1.80;;
71902;SDS011;59778;50.310;18.780;2022-07-06T10:29:27;2.57;;;1.80;;
71902;SDS011;59778;50.310;18.780;2022-07-06T10:44:50;2.90;;;1.80;;
71902;SDS011;59778;50.310;18.780;2022-07-06T11:00:12;2.93;;;1.97;;
71902;SDS011;59778;50.310;18.780;2022-07-06T11:15:47;4.10;;;2.27;;
71902;SDS011;59778;50.310;18.780;2022-07-06T11:31:10;3.80;;;2.10;;
71902;SDS011;59778;50.310;18.780;2022-07-06T11:46:34;4.37;;;1.90;;
71902;SDS011;59778;50.310;18.780;2022-07-06T12:02:00;7.83;;;4.23;;
71902;SDS011;59778;50.310;18.780;2022-07-06T12:17:22;4.40;;;2.67;;
71902;SDS011;59778;50.310;18.780;2022-07-06T12:32:44;5.83;;;2.00;;
71902;SDS011;59778;50.310;18.780;2022-07-06T12:48:05;5.03;;;1.97;;
71902;SDS011;59778;50.310;18.780;2022-07-06T13:03:26;5.70;;;2.00;;
71902;SDS011;59778;50.310;18.780;2022-07-06T13:18:47;5.37;;;2.30;;
71902;SDS011;59778;50.310;18.780;2022-07-06T13:34:09;4.33;;;2.00;;
71902;SDS011;59778;50.310;18.780;2022-07-06T13:49:30;4.60;;;2.07;;
71902;SDS011;59778;50.310;18.780;2022-07-06T14:04:51;3.30;;;2.20;;
71902;SDS011;59778;50.310;18.780;2022-07-06T14:20:13;2.30;;;1.57;;
71902;SDS011;59778;50.310;18.780;2022-07-06T14:35:53;4.40;;;1.97;;
71902;SDS011;59778;50.310;18.780;2022-07-06T14:51:14;3.70;;;1.87;;
71902;SDS011;59778;50.310;18.780;2022-07-06T15:06:35;3.37;;;1.90;;
71902;SDS011;59778;50.310;18.780;2022-07-06T15:21:57;4.03;;;1.60;;
71902;SDS011;59778;50.310;18.780;2022-07-06T15:37:18;3.00;;;1.70;;
71902;SDS011;59778;50.310;18.780;2022-07-06T15:52:39;4.90;;;1.80;;
71902;SDS011;59778;50.310;18.780;2022-07-06T16:08:01;7.67;;;4.63;;
71902;SDS011;59778;50.310;18.780;2022-07-06T16:23:22;4.80;;;2.60;;
71902;SDS011;59778;50.310;18.780;2022-07-06T16:38:43;7.53;;;2.60;;
71902;SDS011;59778;50.310;18.780;2022-07-06T16:54:04;6.03;;;2.40;;
71902;SDS011;59778;50.310;18.780;2022-07-06T17:09:25;3.60;;;1.70;;
71902;SDS011;59778;50.310;18.780;2022-07-06T17:24:47;4.47;;;1.90;;
71902;SDS011;59778;50.310;18.780;2022-07-06T17:40:08;4.43;;;1.40;;
71902;SDS011;59778;50.310;18.780;2022-07-06T17:55:30;4.70;;;1.87;;
71902;SDS011;59778;50.310;18.780;2022-07-06T18:10:51;5.10;;;1.60;;
71902;SDS011;59778;50.310;18.780;2022-07-06T18:26:13;4.87;;;1.97;;
71902;SDS011;59778;50.310;18.780;2022-07-06T18:42:11;10.07;;;4.97;;
71902;SDS011;59778;50.310;18.780;2022-07-06T18:57:33;15.73;;;7.03;;
71902;SDS011;59778;50.310;18.780;2022-07-06T19:12:54;10.03;;;2.80;;
71902;SDS011;59778;50.310;18.780;2022-07-06T19:28:16;9.77;;;5.00;;
71902;SDS011;59778;50.310;18.780;2022-07-06T19:43:37;6.23;;;2.80;;
71902;SDS011;59778;50.310;18.780;2022-07-06T19:58:59;6.07;;;2.73;;
71902;SDS011;59778;50.310;18.780;2022-07-06T20:14:21;7.17;;;3.40;;
71902;SDS011;59778;50.310;18.780;2022-07-06T20:29:42;8.10;;;3.80;;
71902;SDS011;59778;50.310;18.780;2022-07-06T20:45:03;9.43;;;4.47;;
71902;SDS011;59778;50.310;18.780;2022-07-06T21:00:25;12.07;;;5.70;;
71902;SDS011;59778;50.310;18.780;2022-07-06T21:15:46;11.43;;;6.13;;
71902;SDS011;59778;50.310;18.780;2022-07-06T21:31:07;22.07;;;14.53;;
71902;SDS011;59778;50.310;18.780;2022-07-06T21:46:28;14.00;;;7.93;;
71902;SDS011;59778;50.310;18.780;2022-07-06T22:01:49;13.40;;;7.00;;
71902;SDS011;59778;50.310;18.780;2022-07-06T22:17:11;14.23;;;6.73;;
71902;SDS011;59778;50.310;18.780;2022-07-06T22:32:32;12.97;;;7.10;;
71902;SDS011;59778;50.310;18.780;2022-07-06T22:47:53;14.77;;;7.30;;
71902;SDS011;59778;50.310;18.780;2022-07-06T23:03:14;12.90;;;7.23;;
71902;SDS011;59778;50.310;18.780;2022-07-06T23:18:36;17.00;;;7.80;;
71902;SDS011;59778;50.310;18.780;2022-07-06T23:33:57;13.70;;;6.93;;
71902;SDS011;59778;50.310;18.780;2022-07-06T23:49:18;11.73;;;7.27;;
